»·PEaware :: N1972 LHSA-LOWW

N1972 :: LHSA-LOWW

FLIGHT INFORMATION

Flight Status: Arrived
Operator: Privately registered:
United States
More flights under this callsign
Pilot: Tamas B. (15764)
Aircraft: CESSNA 208 CARAVAN
(C208)
More flights by this aircraft type
Origin: LHSA Szentkiralyszabadja
Hungary
Destination: LOWW Schwechat
Austria
More flights between these airports :: More routes between these airports
Route: GYR
File this flight plan on PilotEdge
Remarks:
Altitude:
(Current/Filed)
3,000ft
Speed:
(Current/Filed)
160kts
Departed: 17-Jul-17 05:42 AM
Arrived: 17-Jul-17 06:21 AM
Distance/Time
Traveled:
84nm/0:39
Distance/Time
To Go:
Arrived

Flight Plot

Page will automatically refresh every two minutes.

Flight plan parsing failed; only flown route is shown


Map Options




Map Legend


Flown Route
Filed Route
Departure Airport
Arrival Airport
Navaid (VOR, NDB)
Fix

Horizontal Profiles

Position Reports

Time Latitude Longitude Heading Altitude Ground
Speed
17-Jul-17 05:22 47.077416 17.966390 0 920ft 0kts
17-Jul-17 05:23 47.077416 17.966390 0 920ft 0kts
17-Jul-17 05:24 47.077416 17.966390 0 920ft 0kts
17-Jul-17 05:25 47.077416 17.966390 0 920ft 0kts
17-Jul-17 05:26 47.077416 17.966390 0 920ft 0kts
17-Jul-17 05:27 47.077416 17.966390 0 920ft 0kts
17-Jul-17 05:28 47.077416 17.966390 0 920ft 0kts
17-Jul-17 05:29 47.077416 17.966390 0 920ft 0kts
17-Jul-17 05:30 47.077416 17.966390 0 920ft 0kts
17-Jul-17 05:31 47.077416 17.966390 0 920ft 0kts
17-Jul-17 05:32 47.077416 17.966390 0 920ft 0kts
17-Jul-17 05:33 47.077532 17.966402 339 920ft 2kts
17-Jul-17 05:34 47.077532 17.966402 339 920ft 2kts
17-Jul-17 05:41 47.077843 17.968124 241 920ft 0kts
17-Jul-17 05:42 47.076679 17.966743 153 920ft 16kts
17-Jul-17 05:43 47.070569 17.970281 157 920ft 27kts
17-Jul-17 05:44 47.069317 17.971715 78 920ft 0kts
17-Jul-17 05:45 47.079064 17.967771 344 988ft 99kts
17-Jul-17 05:46 47.111094 17.953666 344 1749ft 132kts
17-Jul-17 05:47 47.147650 17.938020 344 2556ft 138kts
17-Jul-17 05:48 47.182665 17.922989 344 3204ft 134kts
17-Jul-17 05:49 47.222254 17.906116 344 3211ft 158kts
17-Jul-17 05:50 47.265136 17.887813 344 3209ft 162kts
17-Jul-17 05:51 47.308488 17.869213 344 3209ft 163kts
17-Jul-17 05:52 47.351877 17.850503 344 3209ft 163kts
17-Jul-17 05:53 47.392942 17.833042 345 3209ft 163kts
17-Jul-17 05:54 47.436653 17.816138 346 3209ft 163kts
17-Jul-17 05:55 47.480604 17.799845 346 3208ft 163kts
17-Jul-17 05:56 47.523986 17.782257 344 3209ft 164kts
17-Jul-17 05:57 47.568218 17.766859 348 3216ft 164kts
17-Jul-17 05:58 47.612867 17.755727 354 3225ft 164kts
17-Jul-17 05:59 47.657990 17.746700 351 3235ft 164kts
17-Jul-17 06:00 47.703272 17.740806 357 3241ft 164kts
17-Jul-17 06:01 47.744536 17.714033 323 3212ft 165kts
17-Jul-17 06:02 47.778657 17.668268 317 3196ft 165kts
17-Jul-17 06:03 47.811543 17.620676 316 3208ft 165kts
17-Jul-17 06:04 47.844204 17.573244 316 3208ft 165kts
17-Jul-17 06:05 47.878190 17.527971 323 3205ft 165kts
17-Jul-17 06:06 47.911620 17.487534 318 3199ft 165kts
17-Jul-17 06:07 47.943164 17.441100 315 3199ft 165kts
17-Jul-17 06:08 47.970254 17.386016 300 3167ft 167kts
17-Jul-17 06:09 47.993512 17.329533 305 3165ft 169kts
17-Jul-17 06:10 48.019866 17.271884 304 3205ft 169kts
17-Jul-17 06:11 48.046460 17.213398 304 3202ft 170kts
17-Jul-17 06:12 48.077505 17.160219 310 3194ft 171kts
17-Jul-17 06:13 48.105932 17.107585 310 3114ft 171kts
17-Jul-17 06:14 48.132585 17.049659 301 2983ft 166kts
17-Jul-17 06:15 48.145196 16.985218 262 2806ft 165kts
17-Jul-17 06:16 48.137983 16.917478 242 2650ft 167kts
17-Jul-17 06:17 48.118791 16.856031 262 2562ft 163kts
17-Jul-17 06:18 48.117664 16.788911 272 2476ft 161kts
17-Jul-17 06:19 48.091238 16.739390 212 2073ft 156kts
17-Jul-17 06:20 48.076982 16.694012 282 1551ft 128kts
17-Jul-17 06:21 48.085416 16.646646 295 1244ft 114kts
17-Jul-17 06:22 48.098224 16.607639 296 938ft 94kts
17-Jul-17 06:23 48.109327 16.574574 298 611ft 84kts
17-Jul-17 06:24 48.113733 16.563677 357 590ft 9kts
17-Jul-17 06:25 48.114025 16.563569 341 590ft 0kts
17-Jul-17 06:26 48.114026 16.563569 342 590ft 0kts
17-Jul-17 06:27 48.115608 16.562117 319 587ft 11kts
17-Jul-17 06:28 48.117300 16.560377 346 583ft 3kts
17-Jul-17 06:29 48.117866 16.560544 48 584ft 0kts

Navigation Log

Ident Type
Flight plan parsing failed, navigation log unavailable